createdAt,value
2023-04-27T00:01:41.435Z,6.88
2023-04-27T00:04:08.476Z,8.60
2023-04-27T00:06:35.487Z,8.18
2023-04-27T00:09:02.295Z,7.25
2023-04-27T00:11:29.075Z,9.00
2023-04-27T00:13:56.621Z,8.15
2023-04-27T00:16:23.710Z,7.35
2023-04-27T00:18:50.967Z,8.10
2023-04-27T00:21:17.959Z,7.80
2023-04-27T00:23:45.054Z,8.80
2023-04-27T00:26:11.908Z,8.32
2023-04-27T00:28:38.789Z,8.20
2023-04-27T00:31:05.970Z,7.57
2023-04-27T00:33:32.784Z,7.18
2023-04-27T00:36:02.821Z,8.38
2023-04-27T00:38:30.356Z,8.77
2023-04-27T00:41:07.990Z,9.23
2023-04-27T00:43:45.151Z,8.63
2023-04-27T00:46:15.720Z,8.68
2023-04-27T00:48:42.937Z,8.75
2023-04-27T00:51:09.800Z,8.95
2023-04-27T00:53:37.106Z,9.63
2023-04-27T00:56:07.827Z,9.87
2023-04-27T00:58:37.269Z,11.35
2023-04-27T01:01:04.296Z,10.27
2023-04-27T01:03:31.587Z,9.93
2023-04-27T01:06:01.708Z,9.32
2023-04-27T01:08:29.470Z,9.70
2023-04-27T01:10:56.389Z,10.43
2023-04-27T01:13:23.375Z,10.35
2023-04-27T01:15:50.332Z,9.57
2023-04-27T01:18:17.232Z,9.80
2023-04-27T01:20:45.105Z,10.02
2023-04-27T01:23:17.852Z,10.52
2023-04-27T01:25:46.884Z,9.55
2023-04-27T01:28:15.929Z,9.60
2023-04-27T01:30:42.936Z,8.95
2023-04-27T01:33:09.797Z,10.00
2023-04-27T01:35:37.154Z,8.73
2023-04-27T01:38:04.018Z,9.57
2023-04-27T01:40:30.877Z,10.73
2023-04-27T01:42:57.760Z,10.75
2023-04-27T01:45:24.630Z,11.43
2023-04-27T01:47:52.701Z,9.38
2023-04-27T01:50:20.297Z,9.55
2023-04-27T01:52:47.584Z,10.25
2023-04-27T01:55:14.512Z,9.93
2023-04-27T01:57:41.706Z,8.90
2023-04-27T02:00:09.340Z,8.90
2023-04-27T02:02:36.334Z,8.30
2023-04-27T02:05:04.533Z,9.55
2023-04-27T02:07:31.378Z,8.18
2023-04-27T02:09:58.333Z,8.13
2023-04-27T02:12:25.357Z,6.63
2023-04-27T02:14:54.436Z,8.68
2023-04-27T02:17:21.433Z,7.45
2023-04-27T02:19:48.243Z,6.70
2023-04-27T02:22:16.279Z,6.90
2023-04-27T02:24:43.167Z,5.88
2023-04-27T02:27:10.164Z,7.65
2023-04-27T02:29:38.994Z,6.60
2023-04-27T02:32:07.051Z,6.88
2023-04-27T02:34:33.871Z,6.55
2023-04-27T02:37:00.987Z,6.85
2023-04-27T02:39:27.783Z,7.30
2023-04-27T02:41:54.824Z,6.78
2023-04-27T02:44:21.633Z,6.88
2023-04-27T02:46:50.768Z,6.90
2023-04-27T02:49:17.721Z,6.80
2023-04-27T02:51:44.649Z,7.10
2023-04-27T02:54:11.645Z,7.15
2023-04-27T02:56:38.442Z,6.82
2023-04-27T02:59:05.398Z,7.80
2023-04-27T03:01:32.331Z,6.78
2023-04-27T03:03:59.337Z,7.50
2023-04-27T03:06:26.333Z,7.45
2023-04-27T03:08:53.191Z,6.40
2023-04-27T03:11:20.100Z,6.88
2023-04-27T03:13:49.151Z,7.65
2023-04-27T03:16:16.024Z,7.18
2023-04-27T03:18:42.865Z,7.70
2023-04-27T03:21:10.977Z,7.40
2023-04-27T03:23:38.429Z,7.10
2023-04-27T03:26:12.395Z,6.43
2023-04-27T03:28:39.576Z,6.00
2023-04-27T03:31:07.624Z,6.00
2023-04-27T03:33:37.883Z,7.00
2023-04-27T03:36:06.559Z,7.00
2023-04-27T03:38:34.054Z,6.78
2023-04-27T03:41:01.213Z,6.45
2023-04-27T03:43:28.258Z,7.32
2023-04-27T03:45:55.287Z,6.68
2023-04-27T03:48:22.529Z,7.53
2023-04-27T03:50:49.401Z,7.25
2023-04-27T03:53:16.431Z,8.20
2023-04-27T03:55:44.973Z,8.77
2023-04-27T03:58:12.310Z,8.02
2023-04-27T04:00:39.692Z,7.65
2023-04-27T04:03:07.874Z,7.78
2023-04-27T04:05:35.160Z,7.10
2023-04-27T04:08:02.147Z,7.93
2023-04-27T04:10:29.033Z,8.27
2023-04-27T04:12:55.989Z,7.85
2023-04-27T04:15:25.281Z,7.70
2023-04-27T04:17:52.611Z,8.70
2023-04-27T04:20:19.559Z,8.38
2023-04-27T04:22:46.447Z,7.95
2023-04-27T04:25:15.698Z,8.68
2023-04-27T04:27:42.658Z,8.02
2023-04-27T04:30:09.812Z,9.05
2023-04-27T04:32:40.394Z,8.23
2023-04-27T04:35:11.332Z,8.18
2023-04-27T04:37:38.277Z,8.15
2023-04-27T04:40:09.174Z,7.45
2023-04-27T04:42:39.309Z,7.38
2023-04-27T04:45:09.303Z,6.97
2023-04-27T04:47:36.750Z,5.78
2023-04-27T04:50:04.186Z,6.50
2023-04-27T04:52:33.134Z,6.15
2023-04-27T04:55:00.050Z,5.80
2023-04-27T04:57:26.910Z,5.43
2023-04-27T04:59:53.780Z,5.68
2023-04-27T05:02:20.861Z,5.40
2023-04-27T05:04:48.154Z,5.38
2023-04-27T05:07:16.378Z,4.97
2023-04-27T05:09:44.764Z,4.50
2023-04-27T05:12:11.758Z,4.53
2023-04-27T05:14:40.851Z,4.53
2023-04-27T05:17:08.106Z,4.32
2023-04-27T05:19:34.978Z,4.43
2023-04-27T05:22:02.052Z,4.95
2023-04-27T05:24:28.940Z,4.25
2023-04-27T05:26:55.874Z,4.72
2023-04-27T05:29:22.934Z,4.38
2023-04-27T05:31:49.798Z,4.15
2023-04-27T05:34:19.218Z,4.10
2023-04-27T05:36:47.305Z,4.30
2023-04-27T05:39:16.626Z,4.53
2023-04-27T05:41:43.427Z,4.38
2023-04-27T05:44:10.384Z,5.05
2023-04-27T05:46:41.571Z,3.95
2023-04-27T05:49:08.475Z,4.00
2023-04-27T05:51:35.307Z,3.85
2023-04-27T05:54:02.195Z,4.00
2023-04-27T05:56:29.180Z,3.67
2023-04-27T05:58:56.021Z,3.63
2023-04-27T06:01:23.586Z,3.72
2023-04-27T06:03:50.890Z,4.28
2023-04-27T06:06:17.917Z,4.00
2023-04-27T06:08:44.762Z,3.58
2023-04-27T06:11:11.636Z,3.47
2023-04-27T06:13:38.489Z,3.33
2023-04-27T06:16:05.868Z,3.40
2023-04-27T06:18:32.890Z,3.30
2023-04-27T06:21:02.983Z,3.38
2023-04-27T06:23:29.999Z,2.88
2023-04-27T06:25:57.266Z,3.63
2023-04-27T06:28:24.087Z,3.40
2023-04-27T06:30:50.897Z,2.47
2023-04-27T06:33:17.899Z,2.58
2023-04-27T06:35:47.384Z,2.67
2023-04-27T06:38:14.591Z,2.60
2023-04-27T06:40:41.520Z,2.63
2023-04-27T06:43:09.887Z,2.60
2023-04-27T06:45:36.891Z,2.30
2023-04-27T06:48:03.909Z,2.78
2023-04-27T06:50:33.543Z,2.13
2023-04-27T06:53:00.354Z,2.40
2023-04-27T06:55:27.211Z,2.30
2023-04-27T06:57:55.777Z,2.33
2023-04-27T07:00:22.956Z,2.47
2023-04-27T07:02:49.925Z,2.92
2023-04-27T07:05:16.902Z,2.65
2023-04-27T07:07:43.758Z,2.90
2023-04-27T07:10:11.060Z,2.58
2023-04-27T07:12:40.306Z,2.40
2023-04-27T07:15:07.971Z,2.42
2023-04-27T07:17:35.042Z,2.78
2023-04-27T07:20:02.288Z,2.45
2023-04-27T07:22:29.160Z,2.13
2023-04-27T07:24:56.013Z,2.53
2023-04-27T07:27:22.842Z,3.45
2023-04-27T07:29:49.658Z,3.60
2023-04-27T07:32:16.726Z,5.05
2023-04-27T07:34:53.419Z,3.38
2023-04-27T07:37:21.902Z,2.47
2023-04-27T07:39:50.203Z,2.13
2023-04-27T07:42:17.155Z,2.42
2023-04-27T07:44:44.191Z,2.25
2023-04-27T07:47:11.098Z,2.20
2023-04-27T07:49:38.378Z,3.15
2023-04-27T07:52:05.521Z,2.97
2023-04-27T07:54:32.488Z,2.00
2023-04-27T07:56:59.313Z,2.60
2023-04-27T07:59:29.290Z,2.20
2023-04-27T08:02:04.206Z,2.10
2023-04-27T08:07:01.944Z,2.53
2023-04-27T08:09:29.176Z,2.35
2023-04-27T08:11:56.004Z,1.90
2023-04-27T08:14:23.143Z,2.47
2023-04-27T08:16:51.779Z,2.30
2023-04-27T08:19:18.685Z,2.15
2023-04-27T08:21:45.631Z,2.08
2023-04-27T08:24:12.609Z,1.77
2023-04-27T08:26:41.342Z,2.03
2023-04-27T08:29:19.513Z,1.85
2023-04-27T08:31:56.966Z,2.47
2023-04-27T08:34:24.972Z,2.30
2023-04-27T08:36:51.929Z,2.45
2023-04-27T08:39:19.152Z,2.10
2023-04-27T08:41:46.445Z,2.67
2023-04-27T08:44:13.349Z,2.30
2023-04-27T08:46:41.088Z,2.95
2023-04-27T08:49:08.204Z,2.22
2023-04-27T08:51:35.447Z,2.53
2023-04-27T08:54:04.479Z,2.33
2023-04-27T08:56:31.423Z,1.92
2023-04-27T08:58:58.933Z,1.88
2023-04-27T09:01:27.811Z,1.67
2023-04-27T09:04:00.250Z,1.45
2023-04-27T09:06:35.054Z,1.90
2023-04-27T09:09:07.106Z,1.40
2023-04-27T09:14:18.415Z,2.05
2023-04-27T09:16:45.742Z,1.50
2023-04-27T09:19:13.016Z,1.33
2023-04-27T09:21:40.427Z,1.40
2023-04-27T09:24:14.691Z,1.45
2023-04-27T09:26:44.314Z,1.77
2023-04-27T09:29:11.262Z,1.73
2023-04-27T09:31:38.427Z,0.95
2023-04-27T09:34:10.422Z,1.10
2023-04-27T09:36:37.330Z,1.10
2023-04-27T09:39:07.045Z,1.52
2023-04-27T09:41:36.855Z,1.40
2023-04-27T09:44:03.966Z,1.45
2023-04-27T09:46:33.723Z,1.23
2023-04-27T09:49:03.705Z,0.93
2023-04-27T09:51:31.982Z,1.40
2023-04-27T09:54:01.246Z,1.70
2023-04-27T09:56:53.253Z,1.23
2023-04-27T09:59:41.488Z,1.15
2023-04-27T10:02:23.630Z,1.40
2023-04-27T10:05:13.110Z,1.58
2023-04-27T10:07:41.361Z,2.53
2023-04-27T10:10:18.044Z,1.13
2023-04-27T10:12:55.221Z,1.30
2023-04-27T10:15:27.103Z,1.00
2023-04-27T10:17:55.444Z,1.13
2023-04-27T10:20:37.033Z,1.10
2023-04-27T10:23:04.081Z,1.58
2023-04-27T10:25:41.997Z,1.00
2023-04-27T10:28:15.164Z,1.10
2023-04-27T10:30:46.450Z,1.17
2023-04-27T10:33:19.129Z,1.00
2023-04-27T10:35:56.133Z,1.25
2023-04-27T10:38:28.810Z,1.10
2023-04-27T10:41:03.425Z,1.27
2023-04-27T10:43:32.345Z,1.60
2023-04-27T10:46:09.793Z,1.30
2023-04-27T10:48:41.670Z,1.63
2023-04-27T10:51:08.694Z,1.20
2023-04-27T10:53:36.684Z,0.95
2023-04-27T10:56:07.104Z,1.33
2023-04-27T11:01:09.148Z,1.50
2023-04-27T11:03:36.777Z,1.25
2023-04-27T11:06:06.076Z,1.00
2023-04-27T11:08:36.005Z,1.35
2023-04-27T11:11:06.217Z,1.23
2023-04-27T11:13:33.684Z,1.17
2023-04-27T11:16:01.158Z,0.82
2023-04-27T11:18:31.764Z,1.20
2023-04-27T11:21:13.554Z,1.20
2023-04-27T11:23:40.800Z,1.25
2023-04-27T11:26:17.475Z,1.30
2023-04-27T11:29:05.738Z,1.25
2023-04-27T11:31:50.935Z,1.80
2023-04-27T11:34:24.964Z,1.52
2023-04-27T11:39:39.535Z,1.75
2023-04-27T11:42:20.700Z,1.45
2023-04-27T11:45:06.072Z,1.30
2023-04-27T11:47:34.482Z,1.27
2023-04-27T11:50:04.956Z,1.80
2023-04-27T11:52:33.914Z,1.80
2023-04-27T11:55:02.281Z,1.88
2023-04-27T11:57:31.383Z,1.40
2023-04-27T12:00:02.418Z,1.20
2023-04-27T12:02:31.330Z,1.20
2023-04-27T12:04:59.830Z,1.40
2023-04-27T12:07:27.333Z,1.30
2023-04-27T12:09:54.555Z,1.30
2023-04-27T12:12:24.215Z,1.60
2023-04-27T12:14:52.014Z,1.15
2023-04-27T12:17:19.034Z,1.10
2023-04-27T12:19:46.000Z,1.17
2023-04-27T12:22:12.951Z,1.38
2023-04-27T12:24:39.769Z,1.23
2023-04-27T12:27:07.675Z,0.98
2023-04-27T12:29:34.562Z,0.80
2023-04-27T12:32:01.615Z,0.95
2023-04-27T12:34:28.607Z,1.10
2023-04-27T12:36:55.502Z,1.23
2023-04-27T12:39:26.856Z,1.00
2023-04-27T12:41:54.247Z,1.00
2023-04-27T12:44:21.943Z,1.17
2023-04-27T12:46:49.349Z,1.27
2023-04-27T12:49:19.399Z,1.45
2023-04-27T12:51:48.010Z,0.93
2023-04-27T12:54:18.335Z,1.65
2023-04-27T12:56:45.162Z,1.25
2023-04-27T12:59:12.001Z,1.73
2023-04-27T13:01:38.960Z,1.60
2023-04-27T13:04:07.398Z,1.27
2023-04-27T13:06:34.403Z,1.40
2023-04-27T13:09:03.434Z,1.60
2023-04-27T13:11:30.658Z,1.20
2023-04-27T13:13:57.537Z,1.33
2023-04-27T13:16:25.692Z,1.40
2023-04-27T13:18:53.577Z,1.40
2023-04-27T13:21:20.853Z,1.50
2023-04-27T13:23:48.204Z,1.23
2023-04-27T13:26:15.985Z,1.50
2023-04-27T13:28:43.516Z,1.65
2023-04-27T13:31:15.119Z,1.45
2023-04-27T13:33:43.242Z,1.70
2023-04-27T13:36:11.345Z,2.10
2023-04-27T13:38:38.187Z,1.70
2023-04-27T13:41:06.355Z,2.20
2023-04-27T13:43:33.538Z,1.75
2023-04-27T13:46:01.630Z,1.75
2023-04-27T13:48:29.061Z,2.10
2023-04-27T13:50:56.357Z,1.88
2023-04-27T13:53:27.055Z,1.60
2023-04-27T13:55:54.807Z,2.20
2023-04-27T13:58:23.222Z,2.20
2023-04-27T14:00:53.072Z,1.75
2023-04-27T14:03:20.409Z,1.73
2023-04-27T14:05:49.018Z,1.48
2023-04-27T14:08:16.049Z,1.40
2023-04-27T14:10:46.933Z,1.55
2023-04-27T14:13:18.243Z,1.58
2023-04-27T14:15:45.276Z,1.40
2023-04-27T14:18:12.324Z,1.42
2023-04-27T14:20:42.043Z,1.70
2023-04-27T14:23:09.513Z,1.60
2023-04-27T14:25:36.427Z,1.85
2023-04-27T14:28:07.107Z,1.45
2023-04-27T14:30:34.970Z,1.48
2023-04-27T14:33:02.781Z,1.95
2023-04-27T14:35:30.088Z,1.80
2023-04-27T14:38:01.980Z,1.35
2023-04-27T14:42:56.609Z,1.48
2023-04-27T14:45:24.332Z,1.67
2023-04-27T14:47:51.364Z,1.60
2023-04-27T14:50:18.348Z,1.08
2023-04-27T14:52:45.210Z,1.25
2023-04-27T14:55:14.800Z,1.30
2023-04-27T14:57:41.588Z,1.88
2023-04-27T15:00:14.635Z,1.98
2023-04-27T15:02:41.844Z,1.83
2023-04-27T15:05:09.211Z,2.20
2023-04-27T15:07:36.299Z,1.80
2023-04-27T15:10:05.819Z,2.85
2023-04-27T15:12:32.766Z,1.90
2023-04-27T15:14:59.662Z,1.85
2023-04-27T15:17:26.440Z,2.10
2023-04-27T15:19:53.364Z,1.77
2023-04-27T15:22:21.083Z,1.90
2023-04-27T15:24:48.215Z,1.70
2023-04-27T15:27:15.041Z,1.75
2023-04-27T15:29:41.953Z,1.63
2023-04-27T15:32:08.856Z,1.58
2023-04-27T15:34:35.823Z,2.15
2023-04-27T15:37:03.668Z,2.35
2023-04-27T15:39:30.592Z,2.17
2023-04-27T15:41:59.654Z,1.77
2023-04-27T15:44:26.999Z,1.80
2023-04-27T15:46:54.139Z,2.10
2023-04-27T15:49:21.606Z,2.35
2023-04-27T15:51:49.161Z,2.17
2023-04-27T15:54:17.616Z,1.92
2023-04-27T15:56:44.459Z,2.17
2023-04-27T15:59:12.239Z,2.45
2023-04-27T16:01:39.395Z,2.08
2023-04-27T16:04:08.925Z,1.67
2023-04-27T16:06:37.822Z,1.70
2023-04-27T16:09:05.027Z,2.15
2023-04-27T16:11:31.858Z,1.67
2023-04-27T16:13:59.585Z,1.60
2023-04-27T16:16:27.041Z,1.70
2023-04-27T16:18:53.939Z,1.27
2023-04-27T16:21:21.397Z,1.70
2023-04-27T16:23:48.191Z,1.52
2023-04-27T16:26:15.176Z,1.42
2023-04-27T16:28:42.305Z,1.30
2023-04-27T16:31:09.306Z,1.83
2023-04-27T16:33:36.153Z,2.47
2023-04-27T16:36:02.994Z,2.70
2023-04-27T16:38:29.867Z,2.25
2023-04-27T16:40:58.947Z,2.40
2023-04-27T16:43:26.157Z,2.45
2023-04-27T16:45:53.192Z,2.00
2023-04-27T16:48:20.202Z,2.15
2023-04-27T16:50:47.118Z,2.42
2023-04-27T16:53:15.042Z,2.50
2023-04-27T16:55:44.579Z,1.90
2023-04-27T16:58:11.509Z,2.22
2023-04-27T17:00:40.297Z,2.33
2023-04-27T17:03:07.279Z,2.53
2023-04-27T17:05:34.216Z,2.28
2023-04-27T17:08:02.566Z,3.00
2023-04-27T17:10:32.670Z,2.05
2023-04-27T17:12:59.879Z,1.80
2023-04-27T17:15:29.132Z,1.30
2023-04-27T17:17:56.399Z,1.65
2023-04-27T17:20:23.443Z,1.73
2023-04-27T17:22:50.343Z,1.83
2023-04-27T17:25:17.358Z,1.77
2023-04-27T17:27:44.231Z,1.65
2023-04-27T17:30:11.260Z,1.92
2023-04-27T17:32:38.220Z,1.33
2023-04-27T17:35:05.644Z,1.52
2023-04-27T17:37:32.678Z,1.55
2023-04-27T17:39:59.568Z,1.50
2023-04-27T17:42:26.486Z,1.48
2023-04-27T17:44:53.407Z,1.30
2023-04-27T17:47:25.409Z,1.38
2023-04-27T17:49:52.356Z,1.30
2023-04-27T17:52:19.168Z,1.83
2023-04-27T17:54:46.220Z,1.70
2023-04-27T17:57:13.161Z,1.83
2023-04-27T17:59:45.070Z,1.73
2023-04-27T18:02:12.326Z,1.80
2023-04-27T18:04:39.552Z,2.17
2023-04-27T18:07:08.583Z,1.75
2023-04-27T18:09:35.795Z,1.48
2023-04-27T18:12:03.095Z,1.63
2023-04-27T18:14:29.904Z,1.40
2023-04-27T18:16:56.835Z,1.80
2023-04-27T18:19:26.032Z,1.27
2023-04-27T18:21:55.149Z,1.27
2023-04-27T18:24:21.992Z,1.40
2023-04-27T18:26:48.921Z,1.35
2023-04-27T18:29:15.917Z,1.55
2023-04-27T18:31:46.378Z,2.22
2023-04-27T18:34:14.418Z,1.88
2023-04-27T18:36:41.418Z,1.70
2023-04-27T18:39:10.891Z,1.80
2023-04-27T18:41:37.809Z,1.60
2023-04-27T18:44:05.883Z,1.83
2023-04-27T18:46:33.088Z,1.48
2023-04-27T18:49:01.274Z,2.08
2023-04-27T18:51:29.034Z,1.60
2023-04-27T18:53:56.508Z,1.80
2023-04-27T18:56:23.371Z,2.13
2023-04-27T18:58:50.433Z,2.03
2023-04-27T19:01:24.356Z,2.42
2023-04-27T19:03:51.884Z,2.22
2023-04-27T19:06:21.119Z,1.92
2023-04-27T19:08:48.345Z,1.90
2023-04-27T19:11:15.707Z,2.13
2023-04-27T19:13:44.202Z,2.08
2023-04-27T19:16:11.650Z,3.00
2023-04-27T19:18:40.093Z,2.40
2023-04-27T19:21:10.103Z,3.90
2023-04-27T19:23:37.246Z,2.85
2023-04-27T19:26:12.369Z,2.53
2023-04-27T19:28:40.450Z,3.42
2023-04-27T19:31:07.714Z,4.38
2023-04-27T19:33:37.241Z,4.45
2023-04-27T19:36:04.455Z,5.70
2023-04-27T19:38:31.383Z,4.68
2023-04-27T19:40:58.276Z,5.72
2023-04-27T19:43:25.280Z,7.07
2023-04-27T19:45:52.229Z,8.18
2023-04-27T19:48:19.142Z,13.55
2023-04-27T19:50:47.963Z,11.70
2023-04-27T19:53:15.052Z,10.52
2023-04-27T19:55:42.429Z,9.65
2023-04-27T19:58:09.371Z,8.13
2023-04-27T20:00:36.231Z,9.68
2023-04-27T20:03:03.733Z,10.98
2023-04-27T20:05:31.517Z,11.90
2023-04-27T20:07:58.635Z,13.02
2023-04-27T20:10:25.488Z,12.50
2023-04-27T20:12:56.908Z,14.05
2023-04-27T20:15:24.798Z,16.42
2023-04-27T20:17:52.818Z,17.00
2023-04-27T20:20:20.950Z,18.13
2023-04-27T20:22:47.871Z,19.02
2023-04-27T20:25:14.925Z,18.80
2023-04-27T20:27:42.020Z,19.35
2023-04-27T20:30:11.569Z,18.98
2023-04-27T20:32:41.527Z,18.83
2023-04-27T20:35:11.489Z,19.23
2023-04-27T20:37:39.970Z,20.08
2023-04-27T20:40:08.101Z,18.77
2023-04-27T20:42:36.045Z,19.00
2023-04-27T20:45:05.433Z,20.77
2023-04-27T20:47:32.381Z,23.88
2023-04-27T20:49:59.255Z,21.67
2023-04-27T20:52:31.833Z,20.90
2023-04-27T20:55:02.409Z,20.90
2023-04-27T20:57:29.456Z,20.58
2023-04-27T20:59:56.262Z,22.10
2023-04-27T21:02:23.253Z,22.95
2023-04-27T21:04:50.214Z,21.92
2023-04-27T21:07:21.990Z,21.02
2023-04-27T21:09:48.788Z,22.63
2023-04-27T21:12:17.340Z,21.08
2023-04-27T21:14:45.957Z,23.15
2023-04-27T21:17:15.277Z,19.88
2023-04-27T21:19:42.365Z,21.27
2023-04-27T21:22:09.209Z,21.55
2023-04-27T21:24:36.063Z,22.55
2023-04-27T21:27:03.400Z,23.02
2023-04-27T21:29:30.369Z,23.17
2023-04-27T21:31:57.188Z,28.92
2023-04-27T21:34:24.079Z,27.58
2023-04-27T21:36:53.191Z,30.52
2023-04-27T21:39:20.071Z,27.25
2023-04-27T21:41:46.906Z,27.75
2023-04-27T21:44:13.990Z,31.67
2023-04-27T21:46:41.119Z,32.20
2023-04-27T21:49:08.410Z,30.35
2023-04-27T21:51:35.365Z,30.15
2023-04-27T21:54:04.742Z,28.08
2023-04-27T21:56:31.587Z,26.65
2023-04-27T21:58:58.476Z,28.58
2023-04-27T22:01:27.299Z,27.23
2023-04-27T22:03:54.484Z,27.23
2023-04-27T22:06:24.009Z,27.33
2023-04-27T22:08:50.846Z,26.48
2023-04-27T22:11:17.889Z,26.00
2023-04-27T22:13:46.982Z,26.13
2023-04-27T22:16:14.009Z,26.52
2023-04-27T22:18:41.494Z,25.90
2023-04-27T22:21:08.387Z,24.77
2023-04-27T22:23:35.254Z,26.52
2023-04-27T22:26:02.437Z,28.20
2023-04-27T22:28:29.305Z,27.23
2023-04-27T22:30:58.355Z,27.25
2023-04-27T22:33:27.498Z,26.70
2023-04-27T22:35:56.433Z,25.65
2023-04-27T22:38:23.286Z,24.50
2023-04-27T22:40:50.279Z,23.45
2023-04-27T22:43:17.225Z,24.60
2023-04-27T22:45:44.112Z,23.63
2023-04-27T22:48:13.198Z,24.15
2023-04-27T22:50:40.058Z,24.88
2023-04-27T22:53:07.037Z,25.02
2023-04-27T22:55:33.943Z,24.30
2023-04-27T22:58:00.822Z,22.67
2023-04-27T23:00:27.708Z,23.60
2023-04-27T23:02:54.672Z,25.02
2023-04-27T23:05:21.787Z,23.77
2023-04-27T23:07:51.814Z,25.60
2023-04-27T23:10:19.017Z,24.90
2023-04-27T23:12:45.888Z,25.67
2023-04-27T23:15:15.321Z,23.67
2023-04-27T23:17:42.284Z,24.08
2023-04-27T23:20:20.417Z,23.60
2023-04-27T23:22:54.039Z,23.48
2023-04-27T23:25:23.023Z,23.63
2023-04-27T23:27:52.256Z,24.08
2023-04-27T23:30:20.506Z,23.63
2023-04-27T23:32:47.351Z,25.17
2023-04-27T23:35:16.507Z,23.15
2023-04-27T23:37:44.312Z,23.90
2023-04-27T23:40:11.688Z,23.77
2023-04-27T23:42:38.545Z,22.88
2023-04-27T23:45:06.433Z,25.13
2023-04-27T23:47:34.080Z,23.02
2023-04-27T23:50:03.934Z,25.13
2023-04-27T23:52:30.866Z,24.45
2023-04-27T23:54:58.400Z,25.52
2023-04-27T23:57:25.295Z,26.38
2023-04-27T23:59:52.216Z,24.48
